CheckWX is a tool to help pilots better visualize weather data.  It is not intended as a substitute for an official pre-flight weather briefing.

05:30:43 UTC

KABY METAR
Southwest Georgia Regional Airport
Albany, Georgia, USA
Current

38 mins ago

KABY 200453Z AUTO 07014KT 10SM OVC011 10/07 A3026 RMK AO2 SLP246 T01000067 401720100
Observed
Feb-20 @ 04:53 UTC
Wind
  • 070° at 14 KTS
Visibility
16,093 meters
Flight Rules
MVFR
Cloud Levels
  • Overcast at 1,100' AGL
Temperature
10°C / 50°F
Dewpoint
C / 45°F
Humidity
82%
Altimeter
30.26" Hg
Pressure
1024.6 hPa
Previous

2 hours ago

KABY 200353Z AUTO 07011G20KT 10SM OVC011 10/07 A3027 RMK AO2 SLP251 T01000067
Observed
Feb-20 @ 03:53 UTC
Wind
  • 070° at 11 KTS
  • Gusting to 20 KTS
Visibility
16,093 meters
Flight Rules
MVFR
Cloud Levels
  • Overcast at 1,100' AGL
Temperature
10°C / 50°F
Dewpoint
C / 45°F
Humidity
82%
Altimeter
30.27" Hg
Pressure
1025.1 hPa
Previous

2 hours ago

KABY 200305Z AUTO 07015G19KT 10SM OVC014 11/07 A3028 RMK AO2 T01060067
Observed
Feb-20 @ 03:05 UTC
Wind
  • 070° at 15 KTS
  • Gusting to 19 KTS
Visibility
16,093 meters
Flight Rules
MVFR
Cloud Levels
  • Overcast at 1,400' AGL
Temperature
11°C / 52°F
Dewpoint
C / 45°F
Humidity
77%
Altimeter
30.28" Hg
Pressure
1025.42 hPa